sensor_id;sensor_type;location;lat;lon;timestamp;P1;durP1;ratioP1;P2;durP2;ratioP2
31734;SDS011;18313;48.518;9.124;2022-11-15T00:00:36;14.88;;;9.23;;
31734;SDS011;18313;48.518;9.124;2022-11-15T00:03:25;12.30;;;7.50;;
31734;SDS011;18313;48.518;9.124;2022-11-15T00:06:11;15.48;;;9.55;;
31734;SDS011;18313;48.518;9.124;2022-11-15T00:09:00;17.63;;;8.73;;
31734;SDS011;18313;48.518;9.124;2022-11-15T00:11:46;14.02;;;6.90;;
31734;SDS011;18313;48.518;9.124;2022-11-15T00:14:31;11.00;;;6.40;;
31734;SDS011;18313;48.518;9.124;2022-11-15T00:17:17;12.57;;;6.63;;
31734;SDS011;18313;48.518;9.124;2022-11-15T00:20:02;11.05;;;5.97;;
31734;SDS011;18313;48.518;9.124;2022-11-15T00:22:48;12.65;;;6.30;;
31734;SDS011;18313;48.518;9.124;2022-11-15T00:25:34;12.27;;;7.13;;
31734;SDS011;18313;48.518;9.124;2022-11-15T00:28:20;9.02;;;5.57;;
31734;SDS011;18313;48.518;9.124;2022-11-15T00:31:06;10.50;;;5.55;;
31734;SDS011;18313;48.518;9.124;2022-11-15T00:33:53;9.13;;;5.03;;
31734;SDS011;18313;48.518;9.124;2022-11-15T00:36:39;8.38;;;5.00;;
31734;SDS011;18313;48.518;9.124;2022-11-15T00:39:25;9.88;;;5.32;;
31734;SDS011;18313;48.518;9.124;2022-11-15T00:42:10;10.52;;;6.00;;
31734;SDS011;18313;48.518;9.124;2022-11-15T00:44:56;7.07;;;5.13;;
31734;SDS011;18313;48.518;9.124;2022-11-15T00:47:43;9.50;;;5.05;;
31734;SDS011;18313;48.518;9.124;2022-11-15T00:50:30;9.70;;;4.75;;
31734;SDS011;18313;48.518;9.124;2022-11-15T00:53:15;6.90;;;4.38;;
31734;SDS011;18313;48.518;9.124;2022-11-15T00:56:01;7.72;;;4.47;;
31734;SDS011;18313;48.518;9.124;2022-11-15T00:58:47;6.15;;;4.25;;
31734;SDS011;18313;48.518;9.124;2022-11-15T01:01:32;8.13;;;4.10;;
31734;SDS011;18313;48.518;9.124;2022-11-15T01:04:17;8.00;;;4.15;;
31734;SDS011;18313;48.518;9.124;2022-11-15T01:07:03;9.32;;;4.40;;
31734;SDS011;18313;48.518;9.124;2022-11-15T01:09:49;8.20;;;3.92;;
31734;SDS011;18313;48.518;9.124;2022-11-15T01:12:34;6.97;;;4.50;;
31734;SDS011;18313;48.518;9.124;2022-11-15T01:15:20;8.60;;;4.63;;
31734;SDS011;18313;48.518;9.124;2022-11-15T01:18:05;10.07;;;5.25;;
31734;SDS011;18313;48.518;9.124;2022-11-15T01:20:51;10.77;;;6.05;;
31734;SDS011;18313;48.518;9.124;2022-11-15T01:23:37;8.80;;;6.03;;
31734;SDS011;18313;48.518;9.124;2022-11-15T01:26:23;11.40;;;6.43;;
31734;SDS011;18313;48.518;9.124;2022-11-15T01:29:09;12.57;;;7.68;;
31734;SDS011;18313;48.518;9.124;2022-11-15T01:31:54;14.23;;;7.72;;
31734;SDS011;18313;48.518;9.124;2022-11-15T01:34:40;11.38;;;7.30;;
31734;SDS011;18313;48.518;9.124;2022-11-15T01:37:25;13.70;;;7.53;;
31734;SDS011;18313;48.518;9.124;2022-11-15T01:40:11;13.57;;;7.15;;
31734;SDS011;18313;48.518;9.124;2022-11-15T01:42:56;11.25;;;6.72;;
31734;SDS011;18313;48.518;9.124;2022-11-15T01:45:48;12.73;;;7.10;;
31734;SDS011;18313;48.518;9.124;2022-11-15T01:48:41;8.73;;;5.50;;
31734;SDS011;18313;48.518;9.124;2022-11-15T01:51:27;8.68;;;6.10;;
31734;SDS011;18313;48.518;9.124;2022-11-15T01:54:17;8.95;;;5.60;;
31734;SDS011;18313;48.518;9.124;2022-11-15T01:57:06;8.93;;;5.70;;
31734;SDS011;18313;48.518;9.124;2022-11-15T01:59:55;10.40;;;5.53;;
31734;SDS011;18313;48.518;9.124;2022-11-15T02:02:42;11.63;;;6.10;;
31734;SDS011;18313;48.518;9.124;2022-11-15T02:05:28;12.55;;;6.35;;
31734;SDS011;18313;48.518;9.124;2022-11-15T02:08:15;11.65;;;6.63;;
31734;SDS011;18313;48.518;9.124;2022-11-15T02:11:08;10.73;;;5.90;;
31734;SDS011;18313;48.518;9.124;2022-11-15T02:13:54;10.52;;;6.45;;
31734;SDS011;18313;48.518;9.124;2022-11-15T02:32:01;12.95;;;7.05;;
31734;SDS011;18313;48.518;9.124;2022-11-15T02:35:02;10.88;;;6.80;;
31734;SDS011;18313;48.518;9.124;2022-11-15T02:37:55;10.20;;;6.07;;
31734;SDS011;18313;48.518;9.124;2022-11-15T02:43:53;11.88;;;6.28;;
31734;SDS011;18313;48.518;9.124;2022-11-15T02:46:55;9.75;;;6.32;;
31734;SDS011;18313;48.518;9.124;2022-11-15T02:50:05;11.18;;;6.78;;
31734;SDS011;18313;48.518;9.124;2022-11-15T02:52:53;9.98;;;6.22;;
31734;SDS011;18313;48.518;9.124;2022-11-15T02:55:44;9.13;;;6.28;;
31734;SDS011;18313;48.518;9.124;2022-11-15T03:07:32;9.18;;;5.78;;
31734;SDS011;18313;48.518;9.124;2022-11-15T03:13:39;10.75;;;6.32;;
31734;SDS011;18313;48.518;9.124;2022-11-15T03:16:40;8.48;;;5.93;;
31734;SDS011;18313;48.518;9.124;2022-11-15T03:19:41;9.77;;;5.70;;
31734;SDS011;18313;48.518;9.124;2022-11-15T03:22:33;7.82;;;5.40;;
31734;SDS011;18313;48.518;9.124;2022-11-15T03:25:22;8.63;;;5.00;;
31734;SDS011;18313;48.518;9.124;2022-11-15T03:28:12;7.70;;;5.35;;
31734;SDS011;18313;48.518;9.124;2022-11-15T03:31:07;8.93;;;4.82;;
31734;SDS011;18313;48.518;9.124;2022-11-15T03:34:31;9.20;;;5.95;;
31734;SDS011;18313;48.518;9.124;2022-11-15T03:37:17;11.05;;;7.25;;
31734;SDS011;18313;48.518;9.124;2022-11-15T03:40:07;12.02;;;6.72;;
31734;SDS011;18313;48.518;9.124;2022-11-15T03:43:15;9.88;;;6.57;;
31734;SDS011;18313;48.518;9.124;2022-11-15T03:46:32;8.52;;;6.00;;
31734;SDS011;18313;48.518;9.124;2022-11-15T03:49:24;9.93;;;6.30;;
31734;SDS011;18313;48.518;9.124;2022-11-15T03:52:16;8.85;;;5.93;;
31734;SDS011;18313;48.518;9.124;2022-11-15T03:55:04;10.05;;;6.72;;
31734;SDS011;18313;48.518;9.124;2022-11-15T03:57:52;10.15;;;6.80;;
31734;SDS011;18313;48.518;9.124;2022-11-15T04:00:41;8.32;;;6.13;;
31734;SDS011;18313;48.518;9.124;2022-11-15T04:03:27;9.55;;;6.50;;
31734;SDS011;18313;48.518;9.124;2022-11-15T04:06:13;11.93;;;6.13;;
31734;SDS011;18313;48.518;9.124;2022-11-15T04:08:58;8.43;;;5.18;;
31734;SDS011;18313;48.518;9.124;2022-11-15T04:11:44;8.60;;;5.85;;
31734;SDS011;18313;48.518;9.124;2022-11-15T04:14:29;10.07;;;6.63;;
31734;SDS011;18313;48.518;9.124;2022-11-15T04:17:15;9.90;;;6.18;;
31734;SDS011;18313;48.518;9.124;2022-11-15T04:20:00;8.75;;;5.60;;
31734;SDS011;18313;48.518;9.124;2022-11-15T04:23:07;9.85;;;5.82;;
31734;SDS011;18313;48.518;9.124;2022-11-15T04:26:22;10.20;;;6.35;;
31734;SDS011;18313;48.518;9.124;2022-11-15T04:29:08;12.27;;;6.53;;
31734;SDS011;18313;48.518;9.124;2022-11-15T04:32:12;9.77;;;6.70;;
31734;SDS011;18313;48.518;9.124;2022-11-15T04:34:58;9.77;;;6.47;;
31734;SDS011;18313;48.518;9.124;2022-11-15T04:37:43;12.05;;;6.80;;
31734;SDS011;18313;48.518;9.124;2022-11-15T04:40:33;10.00;;;6.65;;
31734;SDS011;18313;48.518;9.124;2022-11-15T04:43:19;11.88;;;7.25;;
31734;SDS011;18313;48.518;9.124;2022-11-15T04:46:05;10.43;;;6.50;;
31734;SDS011;18313;48.518;9.124;2022-11-15T04:48:51;9.02;;;5.97;;
31734;SDS011;18313;48.518;9.124;2022-11-15T04:51:42;9.88;;;6.32;;
31734;SDS011;18313;48.518;9.124;2022-11-15T04:54:28;8.63;;;5.95;;
31734;SDS011;18313;48.518;9.124;2022-11-15T04:57:14;10.02;;;6.20;;
31734;SDS011;18313;48.518;9.124;2022-11-15T04:59:59;9.48;;;6.13;;
31734;SDS011;18313;48.518;9.124;2022-11-15T05:02:45;10.00;;;6.55;;
31734;SDS011;18313;48.518;9.124;2022-11-15T05:05:49;9.30;;;5.20;;
31734;SDS011;18313;48.518;9.124;2022-11-15T05:08:34;7.95;;;5.38;;
31734;SDS011;18313;48.518;9.124;2022-11-15T05:11:20;8.70;;;5.50;;
31734;SDS011;18313;48.518;9.124;2022-11-15T05:14:06;12.15;;;5.40;;
31734;SDS011;18313;48.518;9.124;2022-11-15T05:16:51;10.23;;;5.32;;
31734;SDS011;18313;48.518;9.124;2022-11-15T05:19:37;8.80;;;4.93;;
31734;SDS011;18313;48.518;9.124;2022-11-15T05:22:23;8.90;;;5.32;;
31734;SDS011;18313;48.518;9.124;2022-11-15T05:25:09;10.60;;;6.43;;
31734;SDS011;18313;48.518;9.124;2022-11-15T05:27:54;6.85;;;5.30;;
31734;SDS011;18313;48.518;9.124;2022-11-15T05:30:40;8.20;;;5.55;;
31734;SDS011;18313;48.518;9.124;2022-11-15T05:33:25;9.65;;;6.72;;
31734;SDS011;18313;48.518;9.124;2022-11-15T05:36:13;8.65;;;5.43;;
31734;SDS011;18313;48.518;9.124;2022-11-15T05:42:13;12.27;;;7.10;;
31734;SDS011;18313;48.518;9.124;2022-11-15T05:44:59;11.90;;;6.35;;
31734;SDS011;18313;48.518;9.124;2022-11-15T05:47:49;10.02;;;5.85;;
31734;SDS011;18313;48.518;9.124;2022-11-15T05:50:36;8.93;;;5.50;;
31734;SDS011;18313;48.518;9.124;2022-11-15T05:53:24;9.32;;;5.82;;
31734;SDS011;18313;48.518;9.124;2022-11-15T05:56:10;8.95;;;5.38;;
31734;SDS011;18313;48.518;9.124;2022-11-15T05:58:56;9.23;;;5.55;;
31734;SDS011;18313;48.518;9.124;2022-11-15T06:01:43;9.20;;;4.70;;
31734;SDS011;18313;48.518;9.124;2022-11-15T06:04:29;10.43;;;6.65;;
31734;SDS011;18313;48.518;9.124;2022-11-15T06:07:15;10.27;;;6.22;;
31734;SDS011;18313;48.518;9.124;2022-11-15T06:10:01;7.40;;;5.25;;
31734;SDS011;18313;48.518;9.124;2022-11-15T06:12:47;10.20;;;6.85;;
31734;SDS011;18313;48.518;9.124;2022-11-15T06:15:44;10.57;;;5.95;;
31734;SDS011;18313;48.518;9.124;2022-11-15T06:18:31;10.30;;;5.80;;
31734;SDS011;18313;48.518;9.124;2022-11-15T06:21:18;10.65;;;5.88;;
31734;SDS011;18313;48.518;9.124;2022-11-15T06:24:04;8.25;;;5.72;;
31734;SDS011;18313;48.518;9.124;2022-11-15T06:26:51;10.20;;;6.53;;
31734;SDS011;18313;48.518;9.124;2022-11-15T06:29:36;21.17;;;11.00;;
31734;SDS011;18313;48.518;9.124;2022-11-15T06:32:22;20.05;;;12.55;;
31734;SDS011;18313;48.518;9.124;2022-11-15T06:35:07;24.02;;;14.57;;
31734;SDS011;18313;48.518;9.124;2022-11-15T06:37:53;24.48;;;16.25;;
31734;SDS011;18313;48.518;9.124;2022-11-15T06:40:38;24.13;;;13.02;;
31734;SDS011;18313;48.518;9.124;2022-11-15T06:43:24;13.70;;;8.98;;
31734;SDS011;18313;48.518;9.124;2022-11-15T06:46:10;15.57;;;9.25;;
31734;SDS011;18313;48.518;9.124;2022-11-15T06:48:55;12.73;;;8.65;;
31734;SDS011;18313;48.518;9.124;2022-11-15T06:51:40;11.73;;;8.50;;
31734;SDS011;18313;48.518;9.124;2022-11-15T06:54:26;36.08;;;14.90;;
31734;SDS011;18313;48.518;9.124;2022-11-15T06:57:11;53.58;;;18.27;;
31734;SDS011;18313;48.518;9.124;2022-11-15T06:59:57;79.30;;;23.35;;
31734;SDS011;18313;48.518;9.124;2022-11-15T07:02:42;41.10;;;17.08;;
31734;SDS011;18313;48.518;9.124;2022-11-15T07:05:28;43.15;;;17.70;;
31734;SDS011;18313;48.518;9.124;2022-11-15T07:08:14;35.35;;;14.65;;
31734;SDS011;18313;48.518;9.124;2022-11-15T07:11:00;26.65;;;10.88;;
31734;SDS011;18313;48.518;9.124;2022-11-15T07:13:47;16.70;;;10.13;;
31734;SDS011;18313;48.518;9.124;2022-11-15T07:16:32;64.07;;;20.60;;
31734;SDS011;18313;48.518;9.124;2022-11-15T07:19:18;68.00;;;25.20;;
31734;SDS011;18313;48.518;9.124;2022-11-15T07:22:03;57.38;;;25.10;;
31734;SDS011;18313;48.518;9.124;2022-11-15T07:24:49;51.83;;;24.60;;
31734;SDS011;18313;48.518;9.124;2022-11-15T07:27:35;57.05;;;26.00;;
31734;SDS011;18313;48.518;9.124;2022-11-15T07:30:20;46.20;;;22.63;;
31734;SDS011;18313;48.518;9.124;2022-11-15T07:33:06;46.08;;;22.13;;
31734;SDS011;18313;48.518;9.124;2022-11-15T07:35:51;42.55;;;19.95;;
31734;SDS011;18313;48.518;9.124;2022-11-15T07:38:37;40.85;;;19.58;;
31734;SDS011;18313;48.518;9.124;2022-11-15T07:41:27;40.63;;;19.25;;
31734;SDS011;18313;48.518;9.124;2022-11-15T07:44:12;37.58;;;18.02;;
31734;SDS011;18313;48.518;9.124;2022-11-15T07:46:58;33.10;;;16.95;;
31734;SDS011;18313;48.518;9.124;2022-11-15T07:49:43;32.72;;;14.20;;
31734;SDS011;18313;48.518;9.124;2022-11-15T07:52:30;26.70;;;13.40;;
31734;SDS011;18313;48.518;9.124;2022-11-15T07:55:16;25.98;;;13.43;;
31734;SDS011;18313;48.518;9.124;2022-11-15T07:58:02;36.00;;;15.70;;
31734;SDS011;18313;48.518;9.124;2022-11-15T08:00:48;32.28;;;16.00;;
31734;SDS011;18313;48.518;9.124;2022-11-15T08:03:34;27.17;;;15.27;;
31734;SDS011;18313;48.518;9.124;2022-11-15T08:06:20;17.45;;;10.10;;
31734;SDS011;18313;48.518;9.124;2022-11-15T08:09:05;18.70;;;10.73;;
31734;SDS011;18313;48.518;9.124;2022-11-15T08:11:50;17.25;;;10.38;;
31734;SDS011;18313;48.518;9.124;2022-11-15T08:14:36;22.23;;;13.50;;
31734;SDS011;18313;48.518;9.124;2022-11-15T08:17:22;26.38;;;14.90;;
31734;SDS011;18313;48.518;9.124;2022-11-15T08:20:08;24.23;;;14.73;;
31734;SDS011;18313;48.518;9.124;2022-11-15T08:22:54;25.98;;;15.80;;
31734;SDS011;18313;48.518;9.124;2022-11-15T08:25:49;26.05;;;14.95;;
31734;SDS011;18313;48.518;9.124;2022-11-15T08:28:34;23.52;;;14.20;;
31734;SDS011;18313;48.518;9.124;2022-11-15T08:31:20;25.15;;;14.57;;
31734;SDS011;18313;48.518;9.124;2022-11-15T08:34:06;28.02;;;15.20;;
31734;SDS011;18313;48.518;9.124;2022-11-15T08:36:51;23.83;;;13.70;;
31734;SDS011;18313;48.518;9.124;2022-11-15T08:39:37;14.00;;;8.35;;
31734;SDS011;18313;48.518;9.124;2022-11-15T08:42:22;15.40;;;8.13;;
31734;SDS011;18313;48.518;9.124;2022-11-15T08:45:08;17.25;;;8.30;;
31734;SDS011;18313;48.518;9.124;2022-11-15T08:47:54;14.85;;;6.22;;
31734;SDS011;18313;48.518;9.124;2022-11-15T08:50:40;10.20;;;6.15;;
31734;SDS011;18313;48.518;9.124;2022-11-15T08:53:25;14.05;;;6.25;;
31734;SDS011;18313;48.518;9.124;2022-11-15T08:56:11;11.65;;;7.00;;
31734;SDS011;18313;48.518;9.124;2022-11-15T08:58:58;15.27;;;6.68;;
31734;SDS011;18313;48.518;9.124;2022-11-15T09:01:43;10.85;;;6.65;;
31734;SDS011;18313;48.518;9.124;2022-11-15T09:04:29;11.88;;;5.70;;
31734;SDS011;18313;48.518;9.124;2022-11-15T09:07:15;10.00;;;5.55;;
31734;SDS011;18313;48.518;9.124;2022-11-15T09:10:00;13.43;;;6.15;;
31734;SDS011;18313;48.518;9.124;2022-11-15T09:12:46;15.32;;;7.60;;
31734;SDS011;18313;48.518;9.124;2022-11-15T09:15:33;42.28;;;19.38;;
31734;SDS011;18313;48.518;9.124;2022-11-15T09:18:18;22.38;;;12.55;;
31734;SDS011;18313;48.518;9.124;2022-11-15T09:21:06;10.63;;;5.47;;
31734;SDS011;18313;48.518;9.124;2022-11-15T09:23:52;11.65;;;5.57;;
31734;SDS011;18313;48.518;9.124;2022-11-15T09:26:37;8.85;;;5.20;;
31734;SDS011;18313;48.518;9.124;2022-11-15T09:29:23;10.25;;;4.60;;
31734;SDS011;18313;48.518;9.124;2022-11-15T09:32:09;9.93;;;5.03;;
31734;SDS011;18313;48.518;9.124;2022-11-15T09:34:54;7.03;;;4.55;;
31734;SDS011;18313;48.518;9.124;2022-11-15T09:37:40;10.43;;;5.25;;
31734;SDS011;18313;48.518;9.124;2022-11-15T09:40:25;7.72;;;4.47;;
31734;SDS011;18313;48.518;9.124;2022-11-15T09:43:18;7.45;;;4.75;;
31734;SDS011;18313;48.518;9.124;2022-11-15T09:49:21;6.93;;;3.97;;
31734;SDS011;18313;48.518;9.124;2022-11-15T09:52:07;5.75;;;3.83;;
31734;SDS011;18313;48.518;9.124;2022-11-15T09:54:55;7.35;;;3.97;;
31734;SDS011;18313;48.518;9.124;2022-11-15T10:00:42;6.32;;;3.97;;
31734;SDS011;18313;48.518;9.124;2022-11-15T10:03:34;6.88;;;3.72;;
31734;SDS011;18313;48.518;9.124;2022-11-15T10:06:23;5.32;;;3.55;;
31734;SDS011;18313;48.518;9.124;2022-11-15T10:09:12;6.32;;;3.90;;
31734;SDS011;18313;48.518;9.124;2022-11-15T10:12:07;7.22;;;3.95;;
31734;SDS011;18313;48.518;9.124;2022-11-15T10:15:14;7.45;;;4.03;;
31734;SDS011;18313;48.518;9.124;2022-11-15T10:18:06;7.88;;;3.80;;
31734;SDS011;18313;48.518;9.124;2022-11-15T10:21:29;6.25;;;3.55;;
31734;SDS011;18313;48.518;9.124;2022-11-15T10:24:35;6.53;;;3.83;;
31734;SDS011;18313;48.518;9.124;2022-11-15T10:27:25;6.60;;;3.13;;
31734;SDS011;18313;48.518;9.124;2022-11-15T10:30:11;7.88;;;3.10;;
31734;SDS011;18313;48.518;9.124;2022-11-15T10:33:08;6.82;;;3.00;;
31734;SDS011;18313;48.518;9.124;2022-11-15T10:39:00;6.53;;;3.28;;
31734;SDS011;18313;48.518;9.124;2022-11-15T10:41:47;7.03;;;3.08;;
31734;SDS011;18313;48.518;9.124;2022-11-15T10:44:32;5.43;;;2.85;;
31734;SDS011;18313;48.518;9.124;2022-11-15T10:47:28;6.60;;;3.83;;
31734;SDS011;18313;48.518;9.124;2022-11-15T10:56:22;7.68;;;3.10;;
31734;SDS011;18313;48.518;9.124;2022-11-15T10:59:14;5.32;;;3.58;;
31734;SDS011;18313;48.518;9.124;2022-11-15T11:02:01;5.60;;;3.05;;
31734;SDS011;18313;48.518;9.124;2022-11-15T11:04:50;8.02;;;3.67;;
31734;SDS011;18313;48.518;9.124;2022-11-15T11:07:36;5.28;;;2.85;;
31734;SDS011;18313;48.518;9.124;2022-11-15T11:10:22;6.97;;;3.50;;
31734;SDS011;18313;48.518;9.124;2022-11-15T11:13:28;6.32;;;3.28;;
31734;SDS011;18313;48.518;9.124;2022-11-15T11:16:26;4.60;;;2.63;;
31734;SDS011;18313;48.518;9.124;2022-11-15T11:19:31;4.80;;;2.60;;
31734;SDS011;18313;48.518;9.124;2022-11-15T11:49:56;5.75;;;2.78;;
31734;SDS011;18313;48.518;9.124;2022-11-15T11:53:29;7.28;;;3.65;;
31734;SDS011;18313;48.518;9.124;2022-11-15T11:56:02;7.28;;;3.83;;
31734;SDS011;18313;48.518;9.124;2022-11-15T11:58:55;6.47;;;3.08;;
31734;SDS011;18313;48.518;9.124;2022-11-15T12:01:47;8.63;;;3.58;;
31734;SDS011;18313;48.518;9.124;2022-11-15T12:04:36;7.88;;;3.42;;
31734;SDS011;18313;48.518;9.124;2022-11-15T12:07:25;7.68;;;3.60;;
31734;SDS011;18313;48.518;9.124;2022-11-15T12:13:13;6.65;;;2.90;;
31734;SDS011;18313;48.518;9.124;2022-11-15T12:19:22;5.60;;;3.13;;
31734;SDS011;18313;48.518;9.124;2022-11-15T12:22:19;6.15;;;4.07;;
31734;SDS011;18313;48.518;9.124;2022-11-15T12:25:20;7.07;;;3.70;;
31734;SDS011;18313;48.518;9.124;2022-11-15T12:28:20;7.60;;;3.20;;
31734;SDS011;18313;48.518;9.124;2022-11-15T12:40:35;5.30;;;2.70;;
31734;SDS011;18313;48.518;9.124;2022-11-15T12:43:37;6.70;;;3.38;;
31734;SDS011;18313;48.518;9.124;2022-11-15T12:52:08;6.13;;;2.72;;
31734;SDS011;18313;48.518;9.124;2022-11-15T12:54:55;6.75;;;2.85;;
31734;SDS011;18313;48.518;9.124;2022-11-15T12:57:43;5.07;;;2.97;;
31734;SDS011;18313;48.518;9.124;2022-11-15T13:03:18;6.07;;;2.67;;
31734;SDS011;18313;48.518;9.124;2022-11-15T13:06:08;4.55;;;2.50;;
31734;SDS011;18313;48.518;9.124;2022-11-15T13:17:58;8.25;;;3.13;;
31734;SDS011;18313;48.518;9.124;2022-11-15T13:21:04;5.28;;;3.03;;
31734;SDS011;18313;48.518;9.124;2022-11-15T13:24:22;6.13;;;2.78;;
31734;SDS011;18313;48.518;9.124;2022-11-15T13:27:14;8.10;;;3.00;;
31734;SDS011;18313;48.518;9.124;2022-11-15T13:30:03;7.50;;;3.78;;
31734;SDS011;18313;48.518;9.124;2022-11-15T13:32:48;6.40;;;2.95;;
31734;SDS011;18313;48.518;9.124;2022-11-15T13:35:36;4.80;;;2.88;;
31734;SDS011;18313;48.518;9.124;2022-11-15T13:41:19;7.80;;;3.72;;
31734;SDS011;18313;48.518;9.124;2022-11-15T13:44:17;8.98;;;5.25;;
31734;SDS011;18313;48.518;9.124;2022-11-15T13:47:06;5.10;;;3.25;;
31734;SDS011;18313;48.518;9.124;2022-11-15T13:49:59;5.13;;;2.58;;
31734;SDS011;18313;48.518;9.124;2022-11-15T13:52:46;6.43;;;3.42;;
31734;SDS011;18313;48.518;9.124;2022-11-15T13:55:33;7.07;;;2.92;;
31734;SDS011;18313;48.518;9.124;2022-11-15T13:58:18;7.90;;;3.08;;
31734;SDS011;18313;48.518;9.124;2022-11-15T14:01:08;6.60;;;2.85;;
31734;SDS011;18313;48.518;9.124;2022-11-15T14:04:01;6.13;;;3.78;;
31734;SDS011;18313;48.518;9.124;2022-11-15T14:06:49;6.93;;;3.72;;
31734;SDS011;18313;48.518;9.124;2022-11-15T14:09:39;8.13;;;3.75;;
31734;SDS011;18313;48.518;9.124;2022-11-15T14:12:30;8.27;;;4.80;;
31734;SDS011;18313;48.518;9.124;2022-11-15T14:18:39;8.77;;;3.92;;
31734;SDS011;18313;48.518;9.124;2022-11-15T14:21:30;8.52;;;3.83;;
31734;SDS011;18313;48.518;9.124;2022-11-15T14:24:17;7.35;;;3.63;;
31734;SDS011;18313;48.518;9.124;2022-11-15T14:30:15;10.27;;;5.30;;
31734;SDS011;18313;48.518;9.124;2022-11-15T14:33:11;9.48;;;5.43;;
31734;SDS011;18313;48.518;9.124;2022-11-15T14:38:57;12.52;;;5.03;;
31734;SDS011;18313;48.518;9.124;2022-11-15T14:41:42;9.68;;;4.88;;
31734;SDS011;18313;48.518;9.124;2022-11-15T14:44:28;8.95;;;4.32;;
31734;SDS011;18313;48.518;9.124;2022-11-15T14:47:14;11.38;;;4.40;;
31734;SDS011;18313;48.518;9.124;2022-11-15T14:49:59;8.23;;;4.10;;
31734;SDS011;18313;48.518;9.124;2022-11-15T14:52:45;7.63;;;4.45;;
31734;SDS011;18313;48.518;9.124;2022-11-15T14:55:31;7.43;;;4.30;;
31734;SDS011;18313;48.518;9.124;2022-11-15T14:58:20;7.68;;;3.95;;
31734;SDS011;18313;48.518;9.124;2022-11-15T15:01:25;9.43;;;3.88;;
31734;SDS011;18313;48.518;9.124;2022-11-15T15:04:10;6.90;;;3.63;;
31734;SDS011;18313;48.518;9.124;2022-11-15T15:06:56;9.80;;;4.22;;
31734;SDS011;18313;48.518;9.124;2022-11-15T15:09:41;6.72;;;3.90;;
31734;SDS011;18313;48.518;9.124;2022-11-15T15:12:27;12.27;;;4.60;;
31734;SDS011;18313;48.518;9.124;2022-11-15T15:15:15;7.93;;;4.78;;
31734;SDS011;18313;48.518;9.124;2022-11-15T15:18:03;10.32;;;4.72;;
31734;SDS011;18313;48.518;9.124;2022-11-15T15:20:56;10.70;;;5.07;;
31734;SDS011;18313;48.518;9.124;2022-11-15T15:23:47;14.57;;;5.72;;
31734;SDS011;18313;48.518;9.124;2022-11-15T15:26:33;16.58;;;5.43;;
31734;SDS011;18313;48.518;9.124;2022-11-15T15:29:21;13.38;;;5.30;;
31734;SDS011;18313;48.518;9.124;2022-11-15T15:32:07;13.77;;;5.15;;
31734;SDS011;18313;48.518;9.124;2022-11-15T15:34:53;12.45;;;5.45;;
31734;SDS011;18313;48.518;9.124;2022-11-15T15:37:39;9.30;;;5.72;;
31734;SDS011;18313;48.518;9.124;2022-11-15T15:40:27;11.02;;;5.47;;
31734;SDS011;18313;48.518;9.124;2022-11-15T15:43:14;10.85;;;5.60;;
31734;SDS011;18313;48.518;9.124;2022-11-15T15:46:00;9.20;;;5.07;;
31734;SDS011;18313;48.518;9.124;2022-11-15T15:48:46;17.10;;;6.80;;
31734;SDS011;18313;48.518;9.124;2022-11-15T15:51:31;11.07;;;6.32;;
31734;SDS011;18313;48.518;9.124;2022-11-15T15:54:17;11.43;;;6.03;;
31734;SDS011;18313;48.518;9.124;2022-11-15T15:57:03;15.32;;;6.05;;
31734;SDS011;18313;48.518;9.124;2022-11-15T15:59:49;10.35;;;6.20;;
31734;SDS011;18313;48.518;9.124;2022-11-15T16:02:34;11.55;;;5.95;;
31734;SDS011;18313;48.518;9.124;2022-11-15T16:05:24;10.65;;;5.30;;
31734;SDS011;18313;48.518;9.124;2022-11-15T16:08:20;11.05;;;5.75;;
31734;SDS011;18313;48.518;9.124;2022-11-15T16:11:11;12.15;;;5.70;;
31734;SDS011;18313;48.518;9.124;2022-11-15T16:13:56;10.20;;;5.18;;
31734;SDS011;18313;48.518;9.124;2022-11-15T16:16:42;9.65;;;5.15;;
31734;SDS011;18313;48.518;9.124;2022-11-15T16:19:27;6.63;;;4.30;;
31734;SDS011;18313;48.518;9.124;2022-11-15T16:22:13;17.17;;;8.85;;
31734;SDS011;18313;48.518;9.124;2022-11-15T16:24:59;8.68;;;5.80;;
31734;SDS011;18313;48.518;9.124;2022-11-15T16:27:44;9.05;;;4.50;;
31734;SDS011;18313;48.518;9.124;2022-11-15T16:30:30;7.55;;;3.45;;
31734;SDS011;18313;48.518;9.124;2022-11-15T16:33:16;6.05;;;2.58;;
31734;SDS011;18313;48.518;9.124;2022-11-15T16:36:04;4.47;;;2.58;;
31734;SDS011;18313;48.518;9.124;2022-11-15T16:38:51;4.93;;;2.55;;
31734;SDS011;18313;48.518;9.124;2022-11-15T16:41:37;6.22;;;3.03;;
31734;SDS011;18313;48.518;9.124;2022-11-15T16:44:23;6.82;;;2.88;;
31734;SDS011;18313;48.518;9.124;2022-11-15T16:47:14;5.47;;;3.33;;
31734;SDS011;18313;48.518;9.124;2022-11-15T16:50:04;8.02;;;4.10;;
31734;SDS011;18313;48.518;9.124;2022-11-15T16:52:50;7.55;;;3.88;;
31734;SDS011;18313;48.518;9.124;2022-11-15T16:55:39;8.55;;;2.60;;
31734;SDS011;18313;48.518;9.124;2022-11-15T16:58:25;4.13;;;2.50;;
31734;SDS011;18313;48.518;9.124;2022-11-15T17:01:18;4.50;;;2.50;;
31734;SDS011;18313;48.518;9.124;2022-11-15T17:04:08;4.03;;;2.33;;
31734;SDS011;18313;48.518;9.124;2022-11-15T17:06:57;3.28;;;2.08;;
31734;SDS011;18313;48.518;9.124;2022-11-15T17:09:42;6.70;;;2.50;;
31734;SDS011;18313;48.518;9.124;2022-11-15T17:12:29;6.03;;;2.47;;
31734;SDS011;18313;48.518;9.124;2022-11-15T17:15:15;7.53;;;2.45;;
31734;SDS011;18313;48.518;9.124;2022-11-15T17:18:00;5.43;;;2.63;;
31734;SDS011;18313;48.518;9.124;2022-11-15T17:20:46;8.77;;;4.13;;
31734;SDS011;18313;48.518;9.124;2022-11-15T17:23:32;73.68;;;33.25;;
31734;SDS011;18313;48.518;9.124;2022-11-15T17:26:18;60.42;;;27.30;;
31734;SDS011;18313;48.518;9.124;2022-11-15T17:29:23;16.48;;;7.72;;
31734;SDS011;18313;48.518;9.124;2022-11-15T17:32:09;9.10;;;5.80;;
31734;SDS011;18313;48.518;9.124;2022-11-15T17:34:54;9.35;;;5.68;;
31734;SDS011;18313;48.518;9.124;2022-11-15T17:37:40;10.18;;;5.97;;
31734;SDS011;18313;48.518;9.124;2022-11-15T17:40:25;9.50;;;5.53;;
31734;SDS011;18313;48.518;9.124;2022-11-15T17:43:11;11.05;;;5.95;;
31734;SDS011;18313;48.518;9.124;2022-11-15T17:45:57;10.60;;;6.65;;
31734;SDS011;18313;48.518;9.124;2022-11-15T17:48:43;11.98;;;6.72;;
31734;SDS011;18313;48.518;9.124;2022-11-15T17:51:29;14.93;;;7.90;;
31734;SDS011;18313;48.518;9.124;2022-11-15T17:54:15;13.52;;;7.72;;
31734;SDS011;18313;48.518;9.124;2022-11-15T17:57:00;15.02;;;7.68;;
31734;SDS011;18313;48.518;9.124;2022-11-15T17:59:46;11.73;;;7.50;;
31734;SDS011;18313;48.518;9.124;2022-11-15T18:02:32;28.77;;;15.02;;
31734;SDS011;18313;48.518;9.124;2022-11-15T18:05:18;18.08;;;11.35;;
31734;SDS011;18313;48.518;9.124;2022-11-15T18:08:03;19.27;;;12.20;;
31734;SDS011;18313;48.518;9.124;2022-11-15T18:10:49;15.80;;;10.00;;
31734;SDS011;18313;48.518;9.124;2022-11-15T18:13:35;16.70;;;10.15;;
31734;SDS011;18313;48.518;9.124;2022-11-15T18:16:23;11.30;;;6.90;;
31734;SDS011;18313;48.518;9.124;2022-11-15T18:19:10;9.13;;;5.72;;
31734;SDS011;18313;48.518;9.124;2022-11-15T18:21:58;9.60;;;6.40;;
31734;SDS011;18313;48.518;9.124;2022-11-15T18:24:46;11.95;;;6.32;;
31734;SDS011;18313;48.518;9.124;2022-11-15T18:27:32;8.32;;;5.63;;
31734;SDS011;18313;48.518;9.124;2022-11-15T18:30:17;13.60;;;6.43;;
31734;SDS011;18313;48.518;9.124;2022-11-15T18:33:03;14.82;;;9.02;;
31734;SDS011;18313;48.518;9.124;2022-11-15T18:35:49;17.40;;;10.70;;
31734;SDS011;18313;48.518;9.124;2022-11-15T18:38:34;23.10;;;12.50;;
31734;SDS011;18313;48.518;9.124;2022-11-15T18:41:20;19.77;;;12.75;;
31734;SDS011;18313;48.518;9.124;2022-11-15T18:44:09;18.80;;;11.40;;
31734;SDS011;18313;48.518;9.124;2022-11-15T18:46:54;12.50;;;9.25;;